Petersburgh, New York
Current Conditions -  °F | °C
As of 1:38 PM on Saturday 25 Oct 2014 (Local Time) from KAQW Reporting Station
Overcast Overcast  
Wind Chill: 56°   Ceiling: 3100
Heat Index: 56°   Visibility: 10mi
Dew Point: 45°   Wind: 0mph
Humidity: 67%   Direction: NA
Pressure: 29.68"   Gusts: NA
Location:  42.7192°N, 73.3641°W
Report Text: KAQW 251738Z AUTO 00000KT 10SM OVC031 13/07 A2968 RMK AO2 T01330072
Loading
Personal Weather Stations






























Interactive Weather Map
Tropical Storm Tracking
New forecast layout! Learn more

10-Day Weather Forecast

Advertisements
Track Severe Weather on mobile